DAAG/ALG METAR and TAF weather

Enter ICAO airport designator
Station Type Date Time Source
DAAG METAR 2020/05/30 04:00 UTC NOAA

DAAG 300400Z 14003KT 8000 SCT010 17/16 Q1013


Station Type Date Time Source
DAAG Decoded METAR 2020/05/30 04:00 UTC NOAA

Dar-El-Beida, Algeria (DAAG) 36-43N 003-15E 25M
May 30, 2020 - 12:00 AM EDT / 2020.05.30 0400 UTC
Wind: from the SE (140 degrees) at 3 MPH (3 KT):0
Visibility: 4 mile(s):0
Sky conditions: partly cloudy
Temperature: 62 F (17 C)
Dew Point: 60 F (16 C)
Relative Humidity: 93%
Pressure (altimeter): 29.91 in. Hg (1013 hPa)
ob: DAAG 300400Z 14003KT 8000 SCT010 17/16 Q1013
cycle: 4

Station Type Date Time Source
DAAG TAF 2020/05/29 18:36 UTC NOAA

TAF COR TAF COR DAAG 291700Z 2918/3018 08010KT 9999 FEW026 PROB30
TEMPO 2918/2924 FEW023CB
BECMG 2919/2922 VRB02KT
BECMG 3008/3011 04010KT

Example: see airport list